Time;durP1;ratioP1;P1;durP2;ratioP2;P2;SDS_P1;SDS_P2;PMS_P1;PMS_P2;Temp;Humidity;BMP_temperature;BMP_pressure;BME280_temperature;BME280_humidity;BME280_pressure;Samples;Min_cycle;Max_cycle;Signal;HPM_P1;HPM_P2
2022/02/25 00:02:02;;;;;;;3.13;1.20;;;;;;;;;;5011933;28;20052;-76
2022/02/25 00:04:28;;;;;;;4.03;1.25;;;;;;;;;;5011696;28;20057;-81
2022/02/25 00:06:54;;;;;;;2.05;0.85;;;;;;;;;;5011827;28;20029;-75
2022/02/25 00:09:20;;;;;;;4.18;1.30;;;;;;;;;;5011562;28;20042;-79
2022/02/25 00:11:46;;;;;;;2.42;1.10;;;;;;;;;;5010758;28;20089;-75
2022/02/25 00:14:12;;;;;;;3.78;0.93;;;;;;;;;;5011902;28;20101;-76
2022/02/25 00:16:38;;;;;;;5.00;1.40;;;;;;;;;;5010939;28;20026;-77
2022/02/25 00:19:04;;;;;;;3.75;1.05;;;;;;;;;;5011478;28;20026;-77
2022/02/25 00:21:31;;;;;;;3.03;0.90;;;;;;;;;;5011455;28;20034;-78
2022/02/25 00:23:56;;;;;;;3.22;1.13;;;;;;;;;;5010274;28;20508;-78
2022/02/25 00:26:23;;;;;;;3.65;1.48;;;;;;;;;;5011304;28;20038;-75
2022/02/25 00:28:49;;;;;;;5.60;1.63;;;;;;;;;;5011603;28;20053;-74
2022/02/25 00:31:15;;;;;;;3.35;1.10;;;;;;;;;;5011856;28;20029;-75
2022/02/25 00:33:41;;;;;;;3.95;1.45;;;;;;;;;;5011291;28;20025;-76
2022/02/25 00:36:07;;;;;;;5.15;1.25;;;;;;;;;;5011441;28;20030;-76
2022/02/25 00:38:33;;;;;;;3.45;0.98;;;;;;;;;;5011100;28;20041;-77
2022/02/25 00:40:59;;;;;;;2.50;0.88;;;;;;;;;;5011438;28;20030;-74
2022/02/25 00:43:25;;;;;;;3.63;1.08;;;;;;;;;;5011143;28;20093;-75
2022/02/25 00:45:51;;;;;;;4.15;1.42;;;;;;;;;;5011429;28;20034;-75
2022/02/25 00:48:18;;;;;;;3.42;0.95;;;;;;;;;;5009631;28;20026;-78
2022/02/25 00:50:44;;;;;;;5.53;1.15;;;;;;;;;;5011679;28;20037;-80
2022/02/25 00:53:10;;;;;;;2.53;0.80;;;;;;;;;;5011275;28;20026;-77
2022/02/25 00:55:36;;;;;;;3.35;1.20;;;;;;;;;;5009856;28;20157;-75
2022/02/25 00:58:02;;;;;;;5.72;1.83;;;;;;;;;;5011104;28;20091;-75
2022/02/25 01:00:29;;;;;;;5.03;1.25;;;;;;;;;;5010995;28;20026;-77
2022/02/25 01:02:55;;;;;;;3.58;0.98;;;;;;;;;;5011149;28;20029;-76
2022/02/25 01:05:20;;;;;;;5.28;1.70;;;;;;;;;;5009607;28;20480;-78
2022/02/25 01:07:47;;;;;;;5.05;1.27;;;;;;;;;;5011181;28;20041;-75
2022/02/25 01:10:14;;;;;;;4.82;1.25;;;;;;;;;;5010194;28;20026;-76
2022/02/25 01:12:40;;;;;;;4.10;1.20;;;;;;;;;;5010605;28;20033;-77
2022/02/25 01:15:07;;;;;;;3.70;1.00;;;;;;;;;;5011086;28;20030;-80
2022/02/25 01:17:33;;;;;;;4.28;1.33;;;;;;;;;;5009763;28;20044;-77
2022/02/25 01:20:00;;;;;;;4.88;1.20;;;;;;;;;;5010563;28;20026;-80
2022/02/25 01:22:26;;;;;;;4.60;1.23;;;;;;;;;;5010830;28;20061;-77
2022/02/25 01:24:52;;;;;;;5.55;0.90;;;;;;;;;;5011039;28;20026;-79
2022/02/25 01:27:19;;;;;;;3.20;1.08;;;;;;;;;;5010819;28;20112;-81
2022/02/25 01:29:45;;;;;;;5.85;1.55;;;;;;;;;;5015085;28;20045;-78
2022/02/25 01:32:12;;;;;;;6.95;1.75;;;;;;;;;;5014701;28;20481;-76
2022/02/25 01:34:38;;;;;;;6.50;1.63;;;;;;;;;;5014323;28;20053;-80
2022/02/25 01:37:04;;;;;;;3.55;1.13;;;;;;;;;;5013336;28;20110;-78
2022/02/25 01:39:31;;;;;;;2.30;1.17;;;;;;;;;;5014197;28;20038;-83
2022/02/25 01:41:57;;;;;;;5.78;1.77;;;;;;;;;;5013502;28;20053;-80
2022/02/25 01:44:24;;;;;;;5.22;1.50;;;;;;;;;;5014317;28;20030;-81
2022/02/25 01:46:55;;;;;;;6.07;1.25;;;;;;;;;;5014301;28;20026;-77
2022/02/25 01:49:21;;;;;;;3.67;1.20;;;;;;;;;;5014105;28;20593;-77
2022/02/25 01:51:48;;;;;;;4.85;1.48;;;;;;;;;;5014341;28;20029;-78
2022/02/25 01:54:15;;;;;;;3.95;1.20;;;;;;;;;;5014563;28;20034;-78
2022/02/25 01:56:42;;;;;;;4.82;1.27;;;;;;;;;;5014054;28;20026;-76
2022/02/25 01:59:08;;;;;;;4.22;1.30;;;;;;;;;;5012747;28;20044;-79
2022/02/25 02:01:35;;;;;;;4.35;1.55;;;;;;;;;;5013882;28;20025;-78
2022/02/25 02:04:01;;;;;;;4.13;1.17;;;;;;;;;;5014030;28;20037;-77
2022/02/25 02:06:28;;;;;;;5.45;1.80;;;;;;;;;;5012949;28;20068;-77
2022/02/25 02:08:54;;;;;;;5.38;1.50;;;;;;;;;;5013994;28;20517;-80
2022/02/25 02:11:27;;;;;;;4.80;1.42;;;;;;;;;;5013676;28;20083;-77
2022/02/25 02:13:53;;;;;;;5.63;1.20;;;;;;;;;;5013820;28;20105;-78
2022/02/25 02:16:19;;;;;;;4.30;1.48;;;;;;;;;;5013591;28;20497;-78
2022/02/25 02:18:45;;;;;;;4.05;1.27;;;;;;;;;;5014140;28;20026;-78
2022/02/25 02:21:11;;;;;;;5.57;1.33;;;;;;;;;;5012526;28;20030;-78
2022/02/25 02:23:37;;;;;;;4.70;1.40;;;;;;;;;;5013522;28;20838;-77
2022/02/25 02:26:03;;;;;;;5.03;1.20;;;;;;;;;;5012350;28;20029;-76
2022/02/25 02:28:29;;;;;;;4.32;1.30;;;;;;;;;;5013461;28;20125;-78
2022/02/25 02:30:55;;;;;;;3.63;1.10;;;;;;;;;;5013570;28;20026;-79
2022/02/25 02:33:21;;;;;;;8.02;1.40;;;;;;;;;;5013373;28;20057;-78
2022/02/25 02:35:49;;;;;;;6.18;1.70;;;;;;;;;;5013514;28;20084;-78
2022/02/25 02:38:15;;;;;;;4.93;1.00;;;;;;;;;;5013237;28;20054;-75
2022/02/25 02:40:41;;;;;;;7.80;1.55;;;;;;;;;;5013204;28;20498;-77
2022/02/25 02:43:13;;;;;;;5.05;1.58;;;;;;;;;;5012932;28;20054;-77
2022/02/25 02:45:39;;;;;;;5.00;1.55;;;;;;;;;;5011808;28;20034;-77
2022/02/25 02:48:05;;;;;;;3.42;1.25;;;;;;;;;;5013156;28;20060;-76
2022/02/25 02:50:32;;;;;;;5.05;1.20;;;;;;;;;;5013064;28;20088;-77
2022/02/25 02:52:58;;;;;;;4.72;1.60;;;;;;;;;;5013197;28;20030;-77
2022/02/25 02:55:24;;;;;;;4.57;1.55;;;;;;;;;;5012866;28;20022;-79
2022/02/25 02:57:51;;;;;;;7.45;1.63;;;;;;;;;;5011832;28;20021;-77
2022/02/25 03:00:18;;;;;;;5.68;1.30;;;;;;;;;;5012877;28;20030;-76
2022/02/25 03:02:44;;;;;;;4.13;1.50;;;;;;;;;;5013245;28;20093;-80
2022/02/25 03:05:10;;;;;;;4.22;1.48;;;;;;;;;;5012465;28;20050;-78
2022/02/25 03:07:36;;;;;;;4.97;1.45;;;;;;;;;;5012615;28;20048;-77
2022/02/25 03:10:03;;;;;;;3.95;1.30;;;;;;;;;;5012880;28;20108;-77
2022/02/25 03:12:30;;;;;;;3.88;1.38;;;;;;;;;;5012462;28;20400;-82
2022/02/25 03:14:56;;;;;;;4.63;1.10;;;;;;;;;;5012752;28;20025;-79
2022/02/25 03:17:22;;;;;;;4.13;1.55;;;;;;;;;;5012508;28;20026;-76
2022/02/25 03:19:48;;;;;;;3.63;1.50;;;;;;;;;;5012697;28;20444;-77
2022/02/25 03:22:14;;;;;;;3.53;1.17;;;;;;;;;;5011632;28;20049;-79
2022/02/25 03:24:40;;;;;;;7.32;1.85;;;;;;;;;;5010910;28;20029;-80
2022/02/25 03:27:06;;;;;;;3.85;1.30;;;;;;;;;;5012382;28;20056;-80
2022/02/25 03:29:32;;;;;;;4.68;1.63;;;;;;;;;;5012288;28;20033;-79
2022/02/25 03:31:58;;;;;;;4.38;1.33;;;;;;;;;;5012436;28;20057;-79
2022/02/25 03:34:24;;;;;;;4.97;1.20;;;;;;;;;;5012228;28;20018;-77
2022/02/25 03:36:50;;;;;;;5.47;1.52;;;;;;;;;;5011154;28;20057;-77
2022/02/25 03:39:16;;;;;;;2.92;0.85;;;;;;;;;;5012506;28;20453;-76
2022/02/25 03:41:42;;;;;;;2.72;1.27;;;;;;;;;;5012450;28;20022;-77
2022/02/25 03:44:08;;;;;;;4.45;1.30;;;;;;;;;;5012189;28;20029;-80
2022/02/25 03:46:34;;;;;;;4.60;1.33;;;;;;;;;;5011867;28;20048;-77
2022/02/25 03:49:00;;;;;;;3.90;1.23;;;;;;;;;;5012149;28;20028;-78
2022/02/25 03:51:29;;;;;;;5.75;1.50;;;;;;;;;;5011134;28;20061;-77
2022/02/25 03:53:55;;;;;;;4.05;1.33;;;;;;;;;;5010875;28;20093;-78
2022/02/25 03:56:21;;;;;;;4.15;1.30;;;;;;;;;;5011752;28;20022;-77
2022/02/25 03:58:47;;;;;;;6.22;1.20;;;;;;;;;;5012123;28;20026;-76
2022/02/25 04:01:13;;;;;;;5.85;1.30;;;;;;;;;;5011935;28;20021;-78
2022/02/25 04:03:39;;;;;;;4.97;1.75;;;;;;;;;;5011182;28;20489;-77
2022/02/25 04:06:05;;;;;;;5.32;1.40;;;;;;;;;;5010532;28;20041;-76
2022/02/25 04:08:33;;;;;;;3.08;1.00;;;;;;;;;;5011657;28;20049;-79
2022/02/25 04:10:59;;;;;;;4.95;1.27;;;;;;;;;;5011853;28;20097;-77
2022/02/25 04:13:25;;;;;;;4.45;1.58;;;;;;;;;;5011574;28;20034;-79
2022/02/25 04:15:51;;;;;;;5.75;1.40;;;;;;;;;;5011870;28;20093;-77
2022/02/25 04:18:17;;;;;;;5.05;1.50;;;;;;;;;;5011528;28;20033;-78
2022/02/25 04:20:44;;;;;;;3.92;1.08;;;;;;;;;;5012036;28;20022;-80
2022/02/25 04:23:10;;;;;;;3.78;1.10;;;;;;;;;;5010359;28;20445;-81
2022/02/25 04:25:36;;;;;;;2.45;0.88;;;;;;;;;;5011049;28;20525;-78
2022/02/25 04:28:02;;;;;;;4.95;1.80;;;;;;;;;;5011466;28;20042;-80
2022/02/25 04:30:29;;;;;;;4.40;1.48;;;;;;;;;;5011428;28;20018;-80
2022/02/25 04:32:55;;;;;;;4.20;1.23;;;;;;;;;;5011245;28;20502;-81
2022/02/25 04:35:21;;;;;;;7.50;1.33;;;;;;;;;;5009989;28;20470;-80
2022/02/25 04:37:48;;;;;;;4.95;1.40;;;;;;;;;;5011240;28;20084;-79
2022/02/25 04:40:14;;;;;;;4.82;1.52;;;;;;;;;;5011690;28;20038;-79
2022/02/25 04:42:40;;;;;;;6.10;1.38;;;;;;;;;;5011175;28;20478;-78
2022/02/25 04:45:07;;;;;;;3.78;1.40;;;;;;;;;;5011367;28;20072;-77
2022/02/25 04:47:33;;;;;;;3.70;1.15;;;;;;;;;;5011084;28;20548;-77
2022/02/25 04:49:59;;;;;;;3.78;1.55;;;;;;;;;;5011453;28;20475;-78
2022/02/25 04:52:25;;;;;;;4.80;1.35;;;;;;;;;;5011092;28;20397;-76
2022/02/25 04:54:51;;;;;;;7.97;1.38;;;;;;;;;;5011258;28;20030;-78
2022/02/25 04:57:17;;;;;;;4.10;1.42;;;;;;;;;;5011554;28;20030;-78
2022/02/25 04:59:43;;;;;;;4.47;1.50;;;;;;;;;;5011308;28;20026;-77
2022/02/25 05:02:09;;;;;;;4.57;1.17;;;;;;;;;;5013312;28;20033;-76
2022/02/25 05:04:36;;;;;;;6.22;1.33;;;;;;;;;;5015066;28;20034;-77
2022/02/25 05:07:03;;;;;;;3.08;1.15;;;;;;;;;;5013797;28;20430;-79
2022/02/25 05:09:29;;;;;;;6.28;1.35;;;;;;;;;;5014827;28;20034;-78
2022/02/25 05:11:55;;;;;;;5.55;1.40;;;;;;;;;;5015043;28;20022;-81
2022/02/25 05:22:35;;;;;;;4.55;1.27;;;;;;;;;;5014333;28;20230;-77
2022/02/25 05:25:01;;;;;;;3.88;1.13;;;;;;;;;;5014750;28;20605;-77
2022/02/25 05:27:27;;;;;;;5.30;1.33;;;;;;;;;;5014434;28;20073;-76
2022/02/25 05:29:53;;;;;;;7.25;1.30;;;;;;;;;;5014433;28;20077;-78
2022/02/25 05:32:19;;;;;;;5.10;1.48;;;;;;;;;;5013090;28;20113;-77
2022/02/25 05:34:45;;;;;;;5.35;1.23;;;;;;;;;;5013664;28;20022;-76
2022/02/25 05:37:11;;;;;;;6.47;1.50;;;;;;;;;;5014617;28;20026;-77
2022/02/25 05:39:37;;;;;;;6.43;1.52;;;;;;;;;;5012992;28;20046;-78
2022/02/25 05:42:03;;;;;;;3.95;1.52;;;;;;;;;;5014540;28;20452;-76
2022/02/25 05:44:29;;;;;;;3.75;1.02;;;;;;;;;;5014329;28;20103;-77
2022/02/25 05:46:55;;;;;;;4.25;1.50;;;;;;;;;;5014344;28;20038;-78
2022/02/25 05:49:21;;;;;;;4.53;1.48;;;;;;;;;;5012926;28;20385;-77
2022/02/25 05:51:47;;;;;;;4.18;1.15;;;;;;;;;;5014378;28;20026;-76
2022/02/25 05:54:13;;;;;;;4.07;1.13;;;;;;;;;;5014578;28;20105;-78
2022/02/25 05:56:39;;;;;;;5.38;1.42;;;;;;;;;;5012837;28;20109;-77
2022/02/25 05:59:05;;;;;;;4.32;0.93;;;;;;;;;;5014159;28;20114;-78
2022/02/25 06:01:31;;;;;;;3.63;1.08;;;;;;;;;;5013265;28;20030;-79
2022/02/25 06:03:57;;;;;;;2.67;1.00;;;;;;;;;;5014021;28;20405;-81
2022/02/25 06:06:23;;;;;;;4.78;1.15;;;;;;;;;;5013816;28;20030;-76
2022/02/25 06:08:49;;;;;;;6.45;1.45;;;;;;;;;;5014096;28;20486;-76
2022/02/25 06:11:15;;;;;;;5.93;1.33;;;;;;;;;;5013913;28;20034;-81
2022/02/25 06:13:41;;;;;;;5.70;1.20;;;;;;;;;;5012915;28;20029;-77
2022/02/25 06:16:07;;;;;;;5.57;1.30;;;;;;;;;;5013876;28;20029;-79
2022/02/25 06:18:37;;;;;;;5.25;1.38;;;;;;;;;;5013650;28;20033;-76
2022/02/25 06:21:03;;;;;;;4.72;1.25;;;;;;;;;;5011796;28;20448;-75
2022/02/25 06:23:29;;;;;;;6.35;1.38;;;;;;;;;;5012309;28;20136;-77
2022/02/25 06:25:55;;;;;;;5.43;1.38;;;;;;;;;;5012833;28;20386;-78
2022/02/25 06:28:21;;;;;;;4.28;0.82;;;;;;;;;;5010992;28;20038;-77
2022/02/25 06:30:48;;;;;;;4.57;1.25;;;;;;;;;;5010781;28;20030;-76
2022/02/25 06:33:14;;;;;;;4.05;1.17;;;;;;;;;;5012813;28;20489;-79
2022/02/25 06:35:40;;;;;;;4.47;1.35;;;;;;;;;;5013000;28;20026;-77
2022/02/25 06:38:06;;;;;;;4.38;1.20;;;;;;;;;;5013201;28;20108;-76
2022/02/25 06:40:32;;;;;;;6.35;1.33;;;;;;;;;;5013232;28;20033;-77
2022/02/25 06:42:58;;;;;;;6.28;1.20;;;;;;;;;;5013339;28;20022;-78
2022/02/25 06:45:24;;;;;;;5.28;1.05;;;;;;;;;;5013053;28;20037;-78
2022/02/25 06:47:51;;;;;;;5.28;1.40;;;;;;;;;;5013198;28;20044;-82
2022/02/25 06:50:17;;;;;;;5.90;1.58;;;;;;;;;;5012964;28;20113;-76
2022/02/25 06:52:44;;;;;;;4.88;1.20;;;;;;;;;;5012736;28;20034;-75
2022/02/25 06:55:11;;;;;;;5.07;1.45;;;;;;;;;;5010598;28;20030;-77
2022/02/25 06:57:37;;;;;;;5.75;1.63;;;;;;;;;;5010216;28;20958;-75
2022/02/25 07:00:04;;;;;;;3.47;1.13;;;;;;;;;;5012595;28;20093;-75
2022/02/25 07:02:30;;;;;;;6.22;1.70;;;;;;;;;;5011913;28;20029;-78
2022/02/25 07:04:56;;;;;;;3.05;1.20;;;;;;;;;;5012087;28;20097;-78
2022/02/25 07:07:22;;;;;;;7.15;1.45;;;;;;;;;;5012797;28;20489;-78
2022/02/25 07:09:48;;;;;;;4.82;1.08;;;;;;;;;;5011610;28;20149;-77
2022/02/25 07:12:14;;;;;;;7.03;1.38;;;;;;;;;;5011267;28;20128;-80
2022/02/25 07:14:40;;;;;;;5.28;1.63;;;;;;;;;;5012063;28;20105;-79
2022/02/25 07:17:06;;;;;;;6.80;2.03;;;;;;;;;;5011418;28;20524;-80
2022/02/25 07:19:32;;;;;;;5.72;1.88;;;;;;;;;;5012520;28;20026;-81
2022/02/25 07:21:58;;;;;;;5.00;1.10;;;;;;;;;;5012199;28;20404;-78
2022/02/25 07:24:24;;;;;;;8.98;2.08;;;;;;;;;;5011783;28;20033;-77
2022/02/25 07:26:50;;;;;;;7.53;1.85;;;;;;;;;;5011986;28;20049;-78
2022/02/25 07:29:16;;;;;;;5.25;1.50;;;;;;;;;;5011910;28;20533;-77
2022/02/25 07:31:42;;;;;;;5.68;1.40;;;;;;;;;;5011011;28;20092;-76
2022/02/25 07:34:08;;;;;;;7.55;1.45;;;;;;;;;;5012453;28;20045;-76
2022/02/25 07:36:35;;;;;;;5.32;1.42;;;;;;;;;;5010929;28;20041;-78
2022/02/25 07:39:01;;;;;;;4.95;1.40;;;;;;;;;;5011697;28;20026;-81
2022/02/25 07:41:27;;;;;;;5.45;1.70;;;;;;;;;;5011431;28;20037;-77
2022/02/25 07:43:54;;;;;;;7.22;1.45;;;;;;;;;;5011994;28;20552;-80
2022/02/25 07:46:20;;;;;;;4.72;1.88;;;;;;;;;;5012128;28;20041;-78
2022/02/25 07:48:46;;;;;;;6.40;1.80;;;;;;;;;;5012565;28;20030;-79
2022/02/25 07:51:12;;;;;;;25.25;9.80;;;;;;;;;;5010985;28;20029;-76
2022/02/25 07:53:38;;;;;;;17.60;7.68;;;;;;;;;;5009766;28;20030;-81
2022/02/25 07:56:04;;;;;;;17.38;9.75;;;;;;;;;;5011468;28;20501;-79
2022/02/25 07:58:32;;;;;;;25.25;10.18;;;;;;;;;;5011906;28;20366;-81
2022/02/25 08:00:58;;;;;;;14.95;9.48;;;;;;;;;;5011716;28;20026;-77
2022/02/25 08:03:24;;;;;;;15.57;8.65;;;;;;;;;;5011614;28;20172;-81
2022/02/25 08:05:50;;;;;;;13.52;8.35;;;;;;;;;;5013658;28;20130;-76
2022/02/25 08:08:16;;;;;;;12.50;7.45;;;;;;;;;;5010505;28;20133;-78
2022/02/25 08:10:42;;;;;;;19.13;7.72;;;;;;;;;;5010414;28;20477;-76
2022/02/25 08:13:08;;;;;;;13.30;6.53;;;;;;;;;;5011807;28;20018;-77
2022/02/25 08:15:34;;;;;;;11.93;6.38;;;;;;;;;;5011519;28;20021;-77
2022/02/25 08:18:01;;;;;;;12.18;5.80;;;;;;;;;;5011729;28;20442;-76
2022/02/25 08:20:27;;;;;;;10.88;6.10;;;;;;;;;;5010779;28;20040;-76
2022/02/25 08:22:57;;;;;;;14.10;5.80;;;;;;;;;;5010392;28;20026;-76
2022/02/25 08:25:23;;;;;;;10.38;5.03;;;;;;;;;;4997624;28;20018;-76
2022/02/25 08:27:49;;;;;;;9.55;4.85;;;;;;;;;;5011928;28;20080;-76
2022/02/25 08:30:15;;;;;;;10.50;5.30;;;;;;;;;;5010932;28;20402;-76
2022/02/25 08:32:51;;;;;;;12.38;4.78;;;;;;;;;;5010673;28;20033;-76
2022/02/25 08:35:18;;;;;;;10.65;4.43;;;;;;;;;;5011611;28;20414;-77
2022/02/25 08:37:45;;;;;;;11.75;4.75;;;;;;;;;;5009930;28;20393;-76
2022/02/25 08:40:13;;;;;;;10.23;4.72;;;;;;;;;;5009144;28;20065;-77
2022/02/25 08:42:39;;;;;;;8.20;4.53;;;;;;;;;;5010057;28;20073;-76
2022/02/25 08:45:05;;;;;;;12.07;4.55;;;;;;;;;;5009700;28;20056;-77
2022/02/25 08:47:32;;;;;;;8.13;3.90;;;;;;;;;;5009155;28;20456;-76
2022/02/25 08:49:58;;;;;;;9.60;3.60;;;;;;;;;;5011370;28;20026;-76
2022/02/25 08:52:24;;;;;;;9.80;3.90;;;;;;;;;;5010485;28;20037;-76
2022/02/25 08:54:50;;;;;;;10.35;4.22;;;;;;;;;;5011287;28;20026;-76
2022/02/25 08:57:16;;;;;;;7.68;3.75;;;;;;;;;;5010230;28;20030;-77
2022/02/25 08:59:42;;;;;;;9.13;3.65;;;;;;;;;;5011187;28;20030;-75
2022/02/25 09:02:09;;;;;;;6.53;3.15;;;;;;;;;;5009892;28;20025;-77
2022/02/25 09:04:35;;;;;;;11.77;3.88;;;;;;;;;;5009435;28;20030;-76
2022/02/25 09:07:01;;;;;;;9.63;3.50;;;;;;;;;;5008022;28;20030;-76
2022/02/25 09:09:27;;;;;;;8.70;3.70;;;;;;;;;;5009093;28;20026;-76
2022/02/25 09:11:53;;;;;;;8.20;3.47;;;;;;;;;;5009805;28;20050;-78
2022/02/25 09:14:19;;;;;;;8.65;2.95;;;;;;;;;;5008397;28;20088;-77
2022/02/25 09:16:45;;;;;;;6.85;2.97;;;;;;;;;;5010155;28;20494;-78
2022/02/25 09:19:12;;;;;;;6.88;3.13;;;;;;;;;;5010980;28;20068;-76
2022/02/25 09:21:38;;;;;;;11.35;3.35;;;;;;;;;;5009224;28;20026;-77
2022/02/25 09:24:04;;;;;;;7.60;3.35;;;;;;;;;;5010242;28;20076;-76
2022/02/25 09:26:32;;;;;;;7.10;2.92;;;;;;;;;;5010458;28;20049;-77
2022/02/25 09:28:59;;;;;;;8.68;3.28;;;;;;;;;;5008842;28;20041;-77
2022/02/25 09:31:25;;;;;;;5.32;2.17;;;;;;;;;;5005549;28;20024;-77
2022/02/25 09:33:51;;;;;;;7.32;3.00;;;;;;;;;;5004563;28;20482;-77
2022/02/25 09:36:18;;;;;;;5.25;2.35;;;;;;;;;;5007042;28;20037;-76
2022/02/25 09:38:44;;;;;;;9.73;3.28;;;;;;;;;;5006443;28;20108;-76
2022/02/25 09:41:10;;;;;;;6.47;2.20;;;;;;;;;;5005148;28;20138;-76
2022/02/25 09:43:37;;;;;;;7.03;2.38;;;;;;;;;;5008248;28;20088;-76
2022/02/25 09:46:04;;;;;;;7.40;2.70;;;;;;;;;;5009686;28;20108;-76
2022/02/25 09:48:30;;;;;;;8.80;2.45;;;;;;;;;;5008247;28;20091;-75
2022/02/25 09:50:56;;;;;;;8.57;2.85;;;;;;;;;;5010390;28;20022;-79
2022/02/25 09:53:22;;;;;;;6.65;2.28;;;;;;;;;;5009018;28;20041;-76
2022/02/25 09:55:48;;;;;;;7.32;3.05;;;;;;;;;;5010927;28;20018;-76
2022/02/25 09:58:14;;;;;;;8.18;2.67;;;;;;;;;;5019593;28;20026;-77
2022/02/25 10:00:41;;;;;;;8.32;2.40;;;;;;;;;;5012183;28;20367;-77
2022/02/25 10:03:10;;;;;;;7.13;2.03;;;;;;;;;;5011344;28;20512;-76
2022/02/25 10:05:36;;;;;;;9.10;2.60;;;;;;;;;;5011424;28;20026;-76
2022/02/25 10:08:08;;;;;;;7.07;2.17;;;;;;;;;;5009752;28;20045;-76
2022/02/25 10:10:41;;;;;;;5.75;2.15;;;;;;;;;;5008762;28;20104;-76
2022/02/25 10:13:07;;;;;;;10.57;2.92;;;;;;;;;;5007665;28;20854;-76
2022/02/25 10:15:34;;;;;;;9.13;2.70;;;;;;;;;;5011192;28;20029;-77
2022/02/25 10:18:01;;;;;;;8.65;2.25;;;;;;;;;;5012950;28;20481;-76
2022/02/25 10:20:27;;;;;;;6.30;2.10;;;;;;;;;;5010855;28;20080;-76
2022/02/25 10:22:53;;;;;;;5.47;1.83;;;;;;;;;;5009621;28;20033;-76
2022/02/25 10:25:21;;;;;;;4.95;1.90;;;;;;;;;;5013006;28;20034;-77
2022/02/25 10:27:51;;;;;;;5.30;2.03;;;;;;;;;;5012738;28;20038;-77
2022/02/25 10:30:20;;;;;;;7.72;3.10;;;;;;;;;;5010571;28;20030;-76
2022/02/25 10:32:51;;;;;;;7.38;1.98;;;;;;;;;;5012646;28;20028;-75
2022/02/25 10:35:38;;;;;;;5.68;1.80;;;;;;;;;;5010609;28;20044;-76
2022/02/25 10:38:09;;;;;;;6.55;2.10;;;;;;;;;;5011207;28;20030;-76
2022/02/25 10:40:39;;;;;;;8.43;2.15;;;;;;;;;;5012614;28;20040;-76
2022/02/25 10:43:10;;;;;;;7.90;2.17;;;;;;;;;;5012534;28;20026;-76
2022/02/25 10:45:38;;;;;;;6.82;2.17;;;;;;;;;;5012669;28;20037;-76
2022/02/25 10:48:07;;;;;;;7.32;1.65;;;;;;;;;;5011207;28;20041;-76
2022/02/25 10:50:42;;;;;;;6.55;2.33;;;;;;;;;;5011046;28;20057;-75
2022/02/25 10:53:09;;;;;;;9.27;2.08;;;;;;;;;;5012327;28;20025;-75
2022/02/25 10:55:35;;;;;;;5.72;1.85;;;;;;;;;;5012520;28;20030;-76
2022/02/25 10:58:01;;;;;;;7.35;1.98;;;;;;;;;;5012647;28;20559;-76
2022/02/25 11:00:27;;;;;;;4.13;1.75;;;;;;;;;;5010202;28;20569;-78
2022/02/25 11:02:59;;;;;;;6.07;2.05;;;;;;;;;;5011880;28;20390;-76
2022/02/25 11:05:26;;;;;;;4.97;1.80;;;;;;;;;;5011921;28;20117;-77
2022/02/25 11:07:53;;;;;;;5.53;2.13;;;;;;;;;;5010792;28;20410;-76
2022/02/25 11:10:24;;;;;;;5.55;1.70;;;;;;;;;;5012406;28;20018;-76
2022/02/25 11:12:51;;;;;;;4.78;1.98;;;;;;;;;;5012289;28;20026;-76
2022/02/25 11:15:18;;;;;;;4.60;1.73;;;;;;;;;;5012700;28;20026;-76
2022/02/25 11:17:45;;;;;;;5.20;1.98;;;;;;;;;;5012520;28;20053;-77
2022/02/25 11:20:12;;;;;;;5.35;1.65;;;;;;;;;;4994771;28;20363;-76
2022/02/25 11:22:40;;;;;;;5.32;1.65;;;;;;;;;;5012092;28;20560;-76
2022/02/25 11:25:07;;;;;;;4.13;1.73;;;;;;;;;;5011970;28;20022;-76
2022/02/25 11:27:33;;;;;;;3.67;1.60;;;;;;;;;;4994393;28;20501;-76
2022/02/25 11:30:10;;;;;;;5.82;1.85;;;;;;;;;;5012266;28;20029;-76
2022/02/25 11:32:39;;;;;;;4.90;1.88;;;;;;;;;;5012171;28;20026;-76
2022/02/25 11:35:12;;;;;;;4.30;1.40;;;;;;;;;;5011010;28;20022;-77
2022/02/25 11:37:40;;;;;;;4.68;1.88;;;;;;;;;;5011695;28;20521;-77
2022/02/25 11:40:07;;;;;;;7.00;1.95;;;;;;;;;;5011177;28;20030;-75
2022/02/25 11:42:33;;;;;;;6.07;1.83;;;;;;;;;;5010847;28;20022;-76
2022/02/25 11:45:25;;;;;;;7.13;1.92;;;;;;;;;;5011924;28;20034;-75
2022/02/25 11:47:52;;;;;;;6.18;1.92;;;;;;;;;;5010265;28;20045;-75
2022/02/25 11:50:32;;;;;;;3.97;1.60;;;;;;;;;;5012176;28;20045;-76
2022/02/25 11:52:59;;;;;;;22.13;4.43;;;;;;;;;;5012088;28;20025;-77
2022/02/25 11:55:25;;;;;;;33.38;7.78;;;;;;;;;;5011717;28;20493;-76
2022/02/25 11:57:53;;;;;;;26.70;6.75;;;;;;;;;;5011173;28;20486;-76
2022/02/25 12:00:21;;;;;;;22.58;6.22;;;;;;;;;;5006326;28;20026;-76
2022/02/25 12:03:22;;;;;;;17.52;5.28;;;;;;;;;;5007729;28;20026;-76
2022/02/25 12:05:48;;;;;;;21.65;8.90;;;;;;;;;;4951524;29;20027;-76
2022/02/25 12:08:18;;;;;;;21.58;8.15;;;;;;;;;;4991450;28;20049;-76
2022/02/25 12:10:44;;;;;;;17.08;6.32;;;;;;;;;;5011539;28;20022;-77
2022/02/25 12:13:19;;;;;;;13.80;5.05;;;;;;;;;;5010382;28;20034;-76
2022/02/25 12:15:46;;;;;;;12.00;5.05;;;;;;;;;;5011181;28;20026;-77
2022/02/25 12:18:15;;;;;;;16.15;4.95;;;;;;;;;;5011282;28;20025;-76
2022/02/25 12:20:51;;;;;;;15.30;4.88;;;;;;;;;;5010346;28;20072;-76
2022/02/25 12:23:21;;;;;;;13.25;4.22;;;;;;;;;;5010918;28;20050;-77
2022/02/25 12:25:47;;;;;;;14.10;4.10;;;;;;;;;;5010969;28;20022;-77
2022/02/25 12:28:34;;;;;;;13.93;4.45;;;;;;;;;;5011364;28;20038;-76
2022/02/25 12:31:03;;;;;;;7.78;3.40;;;;;;;;;;5010341;28;20018;-76
2022/02/25 12:33:44;;;;;;;11.73;3.75;;;;;;;;;;5013375;28;20064;-77
2022/02/25 12:36:14;;;;;;;12.57;3.55;;;;;;;;;;5010015;28;20100;-78
2022/02/25 12:38:47;;;;;;;7.93;3.47;;;;;;;;;;4992436;28;20041;-80
2022/02/25 12:41:14;;;;;;;10.88;3.10;;;;;;;;;;5014128;28;20018;-79
2022/02/25 12:44:00;;;;;;;9.40;3.35;;;;;;;;;;4993281;28;20029;-79
2022/02/25 12:46:37;;;;;;;8.82;3.42;;;;;;;;;;5011121;28;20025;-79
2022/02/25 12:49:04;;;;;;;8.25;3.20;;;;;;;;;;5011422;28;20029;-79
2022/02/25 12:51:30;;;;;;;10.20;2.90;;;;;;;;;;5011113;28;20030;-79
2022/02/25 12:53:57;;;;;;;8.63;2.72;;;;;;;;;;5011490;28;20032;-79
2022/02/25 12:56:24;;;;;;;7.50;2.78;;;;;;;;;;5010688;28;20077;-78
2022/02/25 12:58:51;;;;;;;9.02;3.20;;;;;;;;;;5011373;28;20026;-78
2022/02/25 13:01:18;;;;;;;7.38;2.83;;;;;;;;;;4993601;28;20585;-79
2022/02/25 13:03:44;;;;;;;11.15;2.90;;;;;;;;;;5011606;28;20109;-80
2022/02/25 13:06:10;;;;;;;13.18;2.90;;;;;;;;;;5008975;28;20022;-80
2022/02/25 13:08:36;;;;;;;8.48;2.90;;;;;;;;;;5010395;28;20584;-80
2022/02/25 13:11:03;;;;;;;6.55;2.80;;;;;;;;;;5010932;28;20505;-79
2022/02/25 13:13:33;;;;;;;7.13;2.00;;;;;;;;;;5010851;28;20069;-79
2022/02/25 13:16:09;;;;;;;9.98;2.92;;;;;;;;;;4991119;28;20053;-80
2022/02/25 13:18:35;;;;;;;8.18;2.50;;;;;;;;;;5009821;28;20026;-80
2022/02/25 13:21:04;;;;;;;8.65;2.58;;;;;;;;;;5009712;28;20108;-78
2022/02/25 13:23:30;;;;;;;8.35;2.85;;;;;;;;;;5011931;28;20033;-80
2022/02/25 13:26:00;;;;;;;7.32;2.25;;;;;;;;;;5014324;28;20029;-80
2022/02/25 13:28:26;;;;;;;8.32;2.55;;;;;;;;;;5013360;28;20065;-79
2022/02/25 13:30:53;;;;;;;6.43;2.22;;;;;;;;;;5013526;28;20171;-79
2022/02/25 13:33:20;;;;;;;9.93;3.03;;;;;;;;;;5013974;28;20045;-79
2022/02/25 13:35:49;;;;;;;7.65;2.47;;;;;;;;;;4997461;28;20489;-79
2022/02/25 13:38:15;;;;;;;7.43;3.17;;;;;;;;;;5013679;28;20037;-79
2022/02/25 13:40:41;;;;;;;6.47;2.22;;;;;;;;;;5014341;28;20492;-79
2022/02/25 13:43:22;;;;;;;6.57;2.38;;;;;;;;;;5014184;28;20980;-79
2022/02/25 13:45:49;;;;;;;7.32;2.15;;;;;;;;;;5013633;28;20113;-79
2022/02/25 13:53:46;;;;;;;7.18;2.28;;;;;;;;;;5009894;28;20065;-79
2022/02/25 13:56:13;;;;;;;4.70;1.48;;;;;;;;;;5012496;28;20112;-78
2022/02/25 13:58:39;;;;;;;5.70;1.75;;;;;;;;;;5008534;28;20026;-80
2022/02/25 14:01:15;;;;;;;7.25;2.00;;;;;;;;;;5013434;28;20040;-79
2022/02/25 14:03:43;;;;;;;6.55;2.38;;;;;;;;;;5013604;28;20033;-78
2022/02/25 14:06:29;;;;;;;10.45;2.13;;;;;;;;;;5014093;28;20097;-79
2022/02/25 14:08:55;;;;;;;;;;;;;;;;;;5014423;28;20034;-79
2022/02/25 14:11:35;;;;;;;5.18;1.92;;;;;;;;;;5013919;28;20266;-78
2022/02/25 14:14:05;;;;;;;9.13;2.20;;;;;;;;;;5013596;28;20030;-78
2022/02/25 14:16:32;;;;;;;6.28;1.90;;;;;;;;;;5013624;28;20152;-78
2022/02/25 14:19:16;;;;;;;5.63;1.90;;;;;;;;;;5013881;28;20061;-78
2022/02/25 14:21:42;;;;;;;5.95;1.90;;;;;;;;;;4996214;28;20030;-78
2022/02/25 14:24:29;;;;;;;6.38;2.08;;;;;;;;;;5013840;28;20018;-78
2022/02/25 14:27:13;;;;;;;5.90;2.08;;;;;;;;;;5013690;28;20123;-79
2022/02/25 14:29:40;;;;;;;6.53;1.77;;;;;;;;;;5013095;28;20037;-78
2022/02/25 14:32:13;;;;;;;7.88;2.00;;;;;;;;;;5013115;28;20022;-79
2022/02/25 14:34:40;;;;;;;5.32;1.65;;;;;;;;;;5012694;28;20037;-83
2022/02/25 14:37:06;;;;;;;6.45;1.80;;;;;;;;;;5013113;28;20037;-82
2022/02/25 14:39:32;;;;;;;6.00;1.35;;;;;;;;;;4995590;28;20034;-79
2022/02/25 14:41:58;;;;;;;5.40;1.67;;;;;;;;;;5012991;28;20520;-79
2022/02/25 14:44:26;;;;;;;6.68;1.77;;;;;;;;;;5013059;28;20093;-82
2022/02/25 14:46:52;;;;;;;5.15;1.85;;;;;;;;;;5013124;28;20034;-78
2022/02/25 14:49:19;;;;;;;4.82;1.60;;;;;;;;;;5012784;28;20386;-78
2022/02/25 14:51:47;;;;;;;5.80;1.63;;;;;;;;;;5013504;28;20037;-78
2022/02/25 14:54:13;;;;;;;5.82;1.60;;;;;;;;;;5013508;28;20029;-81
2022/02/25 14:56:39;;;;;;;5.85;1.90;;;;;;;;;;5012351;28;20029;-78